sensor_id;sensor_type;location;lat;lon;timestamp;P1;durP1;ratioP1;P2;durP2;ratioP2
47481;SDS011;33219;47.410;9.730;2022-12-10T00:01:27;27.73;;;17.77;;
47481;SDS011;33219;47.410;9.730;2022-12-10T00:03:57;31.57;;;17.00;;
47481;SDS011;33219;47.410;9.730;2022-12-10T00:06:26;26.00;;;16.73;;
47481;SDS011;33219;47.410;9.730;2022-12-10T00:08:55;27.07;;;17.13;;
47481;SDS011;33219;47.410;9.730;2022-12-10T00:11:23;24.47;;;15.60;;
47481;SDS011;33219;47.410;9.730;2022-12-10T00:13:51;26.57;;;16.47;;
47481;SDS011;33219;47.410;9.730;2022-12-10T00:16:21;28.47;;;17.03;;
47481;SDS011;33219;47.410;9.730;2022-12-10T00:18:50;29.03;;;18.03;;
47481;SDS011;33219;47.410;9.730;2022-12-10T00:21:19;25.77;;;16.90;;
47481;SDS011;33219;47.410;9.730;2022-12-10T00:23:48;29.07;;;17.40;;
47481;SDS011;33219;47.410;9.730;2022-12-10T00:26:17;28.43;;;17.53;;
47481;SDS011;33219;47.410;9.730;2022-12-10T00:28:47;26.47;;;16.73;;
47481;SDS011;33219;47.410;9.730;2022-12-10T00:31:16;27.93;;;17.43;;
47481;SDS011;33219;47.410;9.730;2022-12-10T00:33:48;29.37;;;17.10;;
47481;SDS011;33219;47.410;9.730;2022-12-10T00:36:17;25.97;;;15.77;;
47481;SDS011;33219;47.410;9.730;2022-12-10T00:38:47;28.43;;;16.23;;
47481;SDS011;33219;47.410;9.730;2022-12-10T00:41:16;26.93;;;15.23;;
47481;SDS011;33219;47.410;9.730;2022-12-10T00:43:44;27.27;;;15.77;;
47481;SDS011;33219;47.410;9.730;2022-12-10T00:46:12;23.63;;;15.30;;
47481;SDS011;33219;47.410;9.730;2022-12-10T00:48:42;28.03;;;16.87;;
47481;SDS011;33219;47.410;9.730;2022-12-10T00:51:11;27.97;;;16.43;;
47481;SDS011;33219;47.410;9.730;2022-12-10T00:53:42;27.70;;;15.30;;
47481;SDS011;33219;47.410;9.730;2022-12-10T00:56:11;29.27;;;16.73;;
47481;SDS011;33219;47.410;9.730;2022-12-10T00:58:40;28.47;;;15.97;;
47481;SDS011;33219;47.410;9.730;2022-12-10T01:03:45;25.97;;;16.70;;
47481;SDS011;33219;47.410;9.730;2022-12-10T01:06:15;26.77;;;15.70;;
47481;SDS011;33219;47.410;9.730;2022-12-10T01:08:45;25.47;;;14.93;;
47481;SDS011;33219;47.410;9.730;2022-12-10T01:11:14;25.87;;;15.53;;
47481;SDS011;33219;47.410;9.730;2022-12-10T01:13:44;25.23;;;15.37;;
47481;SDS011;33219;47.410;9.730;2022-12-10T01:16:13;27.97;;;15.47;;
47481;SDS011;33219;47.410;9.730;2022-12-10T01:18:43;25.83;;;16.33;;
47481;SDS011;33219;47.410;9.730;2022-12-10T01:21:12;27.73;;;15.73;;
47481;SDS011;33219;47.410;9.730;2022-12-10T01:23:42;26.67;;;16.13;;
47481;SDS011;33219;47.410;9.730;2022-12-10T01:26:12;26.77;;;16.17;;
47481;SDS011;33219;47.410;9.730;2022-12-10T01:28:42;35.40;;;18.37;;
47481;SDS011;33219;47.410;9.730;2022-12-10T01:31:11;30.63;;;17.23;;
47481;SDS011;33219;47.410;9.730;2022-12-10T01:33:40;29.50;;;17.00;;
47481;SDS011;33219;47.410;9.730;2022-12-10T01:36:10;29.67;;;17.07;;
47481;SDS011;33219;47.410;9.730;2022-12-10T01:38:39;30.13;;;17.33;;
47481;SDS011;33219;47.410;9.730;2022-12-10T01:41:08;29.87;;;17.00;;
47481;SDS011;33219;47.410;9.730;2022-12-10T01:43:57;28.23;;;17.23;;
47481;SDS011;33219;47.410;9.730;2022-12-10T01:46:27;28.93;;;17.33;;
47481;SDS011;33219;47.410;9.730;2022-12-10T01:48:56;26.87;;;16.20;;
47481;SDS011;33219;47.410;9.730;2022-12-10T01:51:27;28.23;;;16.73;;
47481;SDS011;33219;47.410;9.730;2022-12-10T01:53:55;29.07;;;16.37;;
47481;SDS011;33219;47.410;9.730;2022-12-10T01:56:24;28.87;;;16.60;;
47481;SDS011;33219;47.410;9.730;2022-12-10T01:58:52;29.97;;;16.73;;
47481;SDS011;33219;47.410;9.730;2022-12-10T02:01:27;25.67;;;16.40;;
47481;SDS011;33219;47.410;9.730;2022-12-10T02:04:03;29.43;;;16.77;;
47481;SDS011;33219;47.410;9.730;2022-12-10T02:15:00;25.23;;;15.75;;
47481;SDS011;33219;47.410;9.730;2022-12-10T02:17:29;29.30;;;17.00;;
47481;SDS011;33219;47.410;9.730;2022-12-10T02:20:03;27.70;;;17.33;;
47481;SDS011;33219;47.410;9.730;2022-12-10T02:22:34;32.30;;;17.57;;
47481;SDS011;33219;47.410;9.730;2022-12-10T02:25:02;29.80;;;17.10;;
47481;SDS011;33219;47.410;9.730;2022-12-10T02:27:47;31.13;;;17.43;;
47481;SDS011;33219;47.410;9.730;2022-12-10T02:30:30;27.87;;;17.13;;
47481;SDS011;33219;47.410;9.730;2022-12-10T02:32:59;27.30;;;16.40;;
47481;SDS011;33219;47.410;9.730;2022-12-10T02:35:30;28.87;;;17.40;;
47481;SDS011;33219;47.410;9.730;2022-12-10T02:38:20;32.00;;;17.47;;
47481;SDS011;33219;47.410;9.730;2022-12-10T02:40:46;29.50;;;17.10;;
47481;SDS011;33219;47.410;9.730;2022-12-10T02:43:16;30.77;;;17.10;;
47481;SDS011;33219;47.410;9.730;2022-12-10T02:45:44;29.20;;;17.27;;
47481;SDS011;33219;47.410;9.730;2022-12-10T02:48:12;29.43;;;16.93;;
47481;SDS011;33219;47.410;9.730;2022-12-10T02:50:41;31.17;;;17.33;;
47481;SDS011;33219;47.410;9.730;2022-12-10T02:53:09;32.73;;;18.93;;
47481;SDS011;33219;47.410;9.730;2022-12-10T02:55:42;31.10;;;17.90;;
47481;SDS011;33219;47.410;9.730;2022-12-10T03:00:41;30.00;;;17.83;;
47481;SDS011;33219;47.410;9.730;2022-12-10T03:06:12;29.63;;;17.20;;
47481;SDS011;33219;47.410;9.730;2022-12-10T03:08:47;28.70;;;17.30;;
47481;SDS011;33219;47.410;9.730;2022-12-10T03:11:17;29.13;;;17.30;;
47481;SDS011;33219;47.410;9.730;2022-12-10T03:16:19;28.87;;;17.53;;
47481;SDS011;33219;47.410;9.730;2022-12-10T03:18:52;30.47;;;17.70;;
47481;SDS011;33219;47.410;9.730;2022-12-10T03:21:19;35.07;;;18.77;;
47481;SDS011;33219;47.410;9.730;2022-12-10T03:23:47;31.50;;;18.63;;
47481;SDS011;33219;47.410;9.730;2022-12-10T03:26:17;30.27;;;17.30;;
47481;SDS011;33219;47.410;9.730;2022-12-10T03:28:49;31.47;;;17.87;;
47481;SDS011;33219;47.410;9.730;2022-12-10T03:31:17;35.30;;;19.43;;
47481;SDS011;33219;47.410;9.730;2022-12-10T03:33:46;32.90;;;18.57;;
47481;SDS011;33219;47.410;9.730;2022-12-10T03:36:15;31.33;;;17.23;;
47481;SDS011;33219;47.410;9.730;2022-12-10T03:38:45;26.13;;;16.87;;
47481;SDS011;33219;47.410;9.730;2022-12-10T03:41:13;31.63;;;17.70;;
47481;SDS011;33219;47.410;9.730;2022-12-10T03:43:50;30.40;;;17.30;;
47481;SDS011;33219;47.410;9.730;2022-12-10T03:46:22;31.40;;;17.90;;
47481;SDS011;33219;47.410;9.730;2022-12-10T03:48:52;30.93;;;18.07;;
47481;SDS011;33219;47.410;9.730;2022-12-10T03:51:20;30.80;;;17.83;;
47481;SDS011;33219;47.410;9.730;2022-12-10T03:53:48;28.90;;;16.53;;
47481;SDS011;33219;47.410;9.730;2022-12-10T03:56:16;28.17;;;16.90;;
47481;SDS011;33219;47.410;9.730;2022-12-10T03:58:45;27.23;;;16.27;;
47481;SDS011;33219;47.410;9.730;2022-12-10T04:01:14;26.47;;;17.03;;
47481;SDS011;33219;47.410;9.730;2022-12-10T04:03:44;25.77;;;15.87;;
47481;SDS011;33219;47.410;9.730;2022-12-10T04:06:13;29.10;;;17.23;;
47481;SDS011;33219;47.410;9.730;2022-12-10T04:08:42;32.40;;;17.93;;
47481;SDS011;33219;47.410;9.730;2022-12-10T04:11:10;31.53;;;18.30;;
47481;SDS011;33219;47.410;9.730;2022-12-10T04:13:38;29.53;;;17.90;;
47481;SDS011;33219;47.410;9.730;2022-12-10T04:16:24;28.77;;;17.67;;
47481;SDS011;33219;47.410;9.730;2022-12-10T04:18:58;30.80;;;18.57;;
47481;SDS011;33219;47.410;9.730;2022-12-10T04:21:22;28.70;;;17.83;;
47481;SDS011;33219;47.410;9.730;2022-12-10T04:24:09;34.17;;;19.63;;
47481;SDS011;33219;47.410;9.730;2022-12-10T04:26:56;29.00;;;18.10;;
47481;SDS011;33219;47.410;9.730;2022-12-10T04:29:26;32.23;;;19.30;;
47481;SDS011;33219;47.410;9.730;2022-12-10T04:31:55;33.47;;;18.63;;
47481;SDS011;33219;47.410;9.730;2022-12-10T04:34:23;33.63;;;18.87;;
47481;SDS011;33219;47.410;9.730;2022-12-10T04:36:51;29.63;;;18.30;;
47481;SDS011;33219;47.410;9.730;2022-12-10T04:39:19;28.80;;;18.37;;
47481;SDS011;33219;47.410;9.730;2022-12-10T04:41:48;30.57;;;18.30;;
47481;SDS011;33219;47.410;9.730;2022-12-10T04:44:16;29.57;;;18.00;;
47481;SDS011;33219;47.410;9.730;2022-12-10T04:46:44;27.37;;;16.93;;
47481;SDS011;33219;47.410;9.730;2022-12-10T04:49:13;25.30;;;15.77;;
47481;SDS011;33219;47.410;9.730;2022-12-10T04:51:40;23.27;;;14.70;;
47481;SDS011;33219;47.410;9.730;2022-12-10T04:54:08;24.80;;;14.80;;
47481;SDS011;33219;47.410;9.730;2022-12-10T04:56:36;23.47;;;15.00;;
47481;SDS011;33219;47.410;9.730;2022-12-10T04:59:04;23.60;;;14.77;;
47481;SDS011;33219;47.410;9.730;2022-12-10T05:01:32;27.53;;;16.27;;
47481;SDS011;33219;47.410;9.730;2022-12-10T05:04:01;25.63;;;16.00;;
47481;SDS011;33219;47.410;9.730;2022-12-10T05:06:30;26.27;;;15.93;;
47481;SDS011;33219;47.410;9.730;2022-12-10T05:08:59;27.23;;;16.97;;
47481;SDS011;33219;47.410;9.730;2022-12-10T05:11:27;27.10;;;17.13;;
47481;SDS011;33219;47.410;9.730;2022-12-10T05:13:56;24.43;;;15.73;;
47481;SDS011;33219;47.410;9.730;2022-12-10T05:16:25;24.33;;;15.60;;
47481;SDS011;33219;47.410;9.730;2022-12-10T05:18:55;23.37;;;14.67;;
47481;SDS011;33219;47.410;9.730;2022-12-10T05:21:24;25.63;;;16.03;;
47481;SDS011;33219;47.410;9.730;2022-12-10T05:23:57;24.20;;;15.80;;
47481;SDS011;33219;47.410;9.730;2022-12-10T05:26:25;26.30;;;15.97;;
47481;SDS011;33219;47.410;9.730;2022-12-10T05:28:54;27.70;;;16.07;;
47481;SDS011;33219;47.410;9.730;2022-12-10T05:31:23;27.50;;;16.50;;
47481;SDS011;33219;47.410;9.730;2022-12-10T05:33:53;24.73;;;15.37;;
47481;SDS011;33219;47.410;9.730;2022-12-10T05:36:23;28.07;;;16.87;;
47481;SDS011;33219;47.410;9.730;2022-12-10T05:38:53;26.17;;;16.67;;
47481;SDS011;33219;47.410;9.730;2022-12-10T05:41:27;31.10;;;17.90;;
47481;SDS011;33219;47.410;9.730;2022-12-10T05:43:57;41.60;;;22.50;;
47481;SDS011;33219;47.410;9.730;2022-12-10T05:46:23;38.27;;;21.47;;
47481;SDS011;33219;47.410;9.730;2022-12-10T05:48:52;27.90;;;17.90;;
47481;SDS011;33219;47.410;9.730;2022-12-10T05:51:21;29.63;;;17.40;;
47481;SDS011;33219;47.410;9.730;2022-12-10T05:53:50;27.23;;;17.23;;
47481;SDS011;33219;47.410;9.730;2022-12-10T05:56:20;30.30;;;18.23;;
47481;SDS011;33219;47.410;9.730;2022-12-10T05:58:50;27.77;;;17.20;;
47481;SDS011;33219;47.410;9.730;2022-12-10T06:01:24;30.80;;;18.40;;
47481;SDS011;33219;47.410;9.730;2022-12-10T06:03:53;30.57;;;18.17;;
47481;SDS011;33219;47.410;9.730;2022-12-10T06:06:28;30.47;;;17.37;;
47481;SDS011;33219;47.410;9.730;2022-12-10T06:08:52;32.40;;;18.97;;
47481;SDS011;33219;47.410;9.730;2022-12-10T06:11:21;32.93;;;18.73;;
47481;SDS011;33219;47.410;9.730;2022-12-10T06:13:49;32.63;;;18.37;;
47481;SDS011;33219;47.410;9.730;2022-12-10T06:16:17;28.63;;;18.47;;
47481;SDS011;33219;47.410;9.730;2022-12-10T06:18:45;27.83;;;17.13;;
47481;SDS011;33219;47.410;9.730;2022-12-10T06:21:13;29.10;;;17.97;;
47481;SDS011;33219;47.410;9.730;2022-12-10T06:23:43;27.37;;;16.83;;
47481;SDS011;33219;47.410;9.730;2022-12-10T06:26:12;30.13;;;16.70;;
47481;SDS011;33219;47.410;9.730;2022-12-10T06:28:45;25.33;;;16.40;;
47481;SDS011;33219;47.410;9.730;2022-12-10T06:31:13;29.53;;;17.10;;
47481;SDS011;33219;47.410;9.730;2022-12-10T06:33:41;27.50;;;16.93;;
47481;SDS011;33219;47.410;9.730;2022-12-10T06:36:10;28.63;;;17.77;;
47481;SDS011;33219;47.410;9.730;2022-12-10T06:38:39;26.70;;;17.20;;
47481;SDS011;33219;47.410;9.730;2022-12-10T06:41:08;31.63;;;18.53;;
47481;SDS011;33219;47.410;9.730;2022-12-10T06:43:37;34.73;;;18.60;;
47481;SDS011;33219;47.410;9.730;2022-12-10T06:46:08;31.80;;;18.47;;
47481;SDS011;33219;47.410;9.730;2022-12-10T06:48:38;31.40;;;18.30;;
47481;SDS011;33219;47.410;9.730;2022-12-10T06:51:05;31.23;;;17.20;;
47481;SDS011;33219;47.410;9.730;2022-12-10T06:53:35;28.00;;;17.03;;
47481;SDS011;33219;47.410;9.730;2022-12-10T06:56:05;25.10;;;16.53;;
47481;SDS011;33219;47.410;9.730;2022-12-10T06:58:33;27.73;;;17.10;;
47481;SDS011;33219;47.410;9.730;2022-12-10T07:01:08;27.60;;;16.53;;
47481;SDS011;33219;47.410;9.730;2022-12-10T07:03:41;29.40;;;17.80;;
47481;SDS011;33219;47.410;9.730;2022-12-10T07:06:10;27.83;;;16.67;;
47481;SDS011;33219;47.410;9.730;2022-12-10T07:08:38;27.73;;;16.80;;
47481;SDS011;33219;47.410;9.730;2022-12-10T07:11:07;30.23;;;18.07;;
47481;SDS011;33219;47.410;9.730;2022-12-10T07:13:36;29.20;;;17.93;;
47481;SDS011;33219;47.410;9.730;2022-12-10T07:16:16;31.33;;;19.07;;
47481;SDS011;33219;47.410;9.730;2022-12-10T07:18:41;30.50;;;19.03;;
47481;SDS011;33219;47.410;9.730;2022-12-10T07:21:15;30.97;;;18.77;;
47481;SDS011;33219;47.410;9.730;2022-12-10T07:23:44;33.57;;;20.13;;
47481;SDS011;33219;47.410;9.730;2022-12-10T07:26:12;32.90;;;19.97;;
47481;SDS011;33219;47.410;9.730;2022-12-10T07:28:40;29.43;;;17.83;;
47481;SDS011;33219;47.410;9.730;2022-12-10T07:31:08;29.33;;;18.47;;
47481;SDS011;33219;47.410;9.730;2022-12-10T07:33:36;32.07;;;19.23;;
47481;SDS011;33219;47.410;9.730;2022-12-10T07:36:09;32.17;;;17.90;;
47481;SDS011;33219;47.410;9.730;2022-12-10T07:38:34;29.07;;;18.40;;
47481;SDS011;33219;47.410;9.730;2022-12-10T07:41:04;31.17;;;19.63;;
47481;SDS011;33219;47.410;9.730;2022-12-10T07:43:35;31.33;;;19.13;;
47481;SDS011;33219;47.410;9.730;2022-12-10T07:46:09;28.92;;;18.42;;
47481;SDS011;33219;47.410;9.730;2022-12-10T07:48:34;30.50;;;18.93;;
47481;SDS011;33219;47.410;9.730;2022-12-10T07:51:03;26.60;;;17.80;;
47481;SDS011;33219;47.410;9.730;2022-12-10T07:53:31;29.47;;;18.20;;
47481;SDS011;33219;47.410;9.730;2022-12-10T07:55:58;30.37;;;17.97;;
47481;SDS011;33219;47.410;9.730;2022-12-10T07:58:26;29.20;;;17.97;;
47481;SDS011;33219;47.410;9.730;2022-12-10T08:00:54;27.97;;;17.73;;
47481;SDS011;33219;47.410;9.730;2022-12-10T08:03:22;30.80;;;19.10;;
47481;SDS011;33219;47.410;9.730;2022-12-10T08:06:12;33.00;;;20.10;;
47481;SDS011;33219;47.410;9.730;2022-12-10T08:08:29;32.33;;;20.00;;
47481;SDS011;33219;47.410;9.730;2022-12-10T08:10:58;32.90;;;19.83;;
47481;SDS011;33219;47.410;9.730;2022-12-10T08:13:26;34.63;;;20.23;;
47481;SDS011;33219;47.410;9.730;2022-12-10T08:16:00;34.03;;;20.23;;
47481;SDS011;33219;47.410;9.730;2022-12-10T08:18:31;32.17;;;19.60;;
47481;SDS011;33219;47.410;9.730;2022-12-10T08:21:02;30.27;;;18.60;;
47481;SDS011;33219;47.410;9.730;2022-12-10T08:23:29;30.87;;;18.20;;
47481;SDS011;33219;47.410;9.730;2022-12-10T08:25:57;30.33;;;17.87;;
47481;SDS011;33219;47.410;9.730;2022-12-10T08:28:24;32.97;;;18.80;;
47481;SDS011;33219;47.410;9.730;2022-12-10T08:30:52;31.07;;;19.43;;
47481;SDS011;33219;47.410;9.730;2022-12-10T08:33:19;30.57;;;18.10;;
47481;SDS011;33219;47.410;9.730;2022-12-10T08:35:47;34.03;;;18.97;;
47481;SDS011;33219;47.410;9.730;2022-12-10T08:38:14;33.63;;;19.27;;
47481;SDS011;33219;47.410;9.730;2022-12-10T08:40:42;35.80;;;19.23;;
47481;SDS011;33219;47.410;9.730;2022-12-10T08:43:11;34.50;;;18.90;;
47481;SDS011;33219;47.410;9.730;2022-12-10T08:45:38;36.83;;;19.60;;
47481;SDS011;33219;47.410;9.730;2022-12-10T08:48:06;34.67;;;19.60;;
47481;SDS011;33219;47.410;9.730;2022-12-10T08:50:33;36.37;;;20.33;;
47481;SDS011;33219;47.410;9.730;2022-12-10T08:53:02;36.03;;;20.73;;
47481;SDS011;33219;47.410;9.730;2022-12-10T08:55:30;38.73;;;21.07;;
47481;SDS011;33219;47.410;9.730;2022-12-10T08:57:57;37.10;;;19.60;;
47481;SDS011;33219;47.410;9.730;2022-12-10T09:00:25;40.60;;;21.43;;
47481;SDS011;33219;47.410;9.730;2022-12-10T09:02:53;36.73;;;19.90;;
47481;SDS011;33219;47.410;9.730;2022-12-10T09:05:21;36.47;;;19.77;;
47481;SDS011;33219;47.410;9.730;2022-12-10T09:07:48;37.43;;;20.07;;
47481;SDS011;33219;47.410;9.730;2022-12-10T09:10:18;38.37;;;21.53;;
47481;SDS011;33219;47.410;9.730;2022-12-10T09:12:47;35.27;;;20.23;;
47481;SDS011;33219;47.410;9.730;2022-12-10T09:15:15;37.67;;;20.03;;
47481;SDS011;33219;47.410;9.730;2022-12-10T09:17:43;38.37;;;21.30;;
47481;SDS011;33219;47.410;9.730;2022-12-10T09:20:10;38.57;;;21.00;;
47481;SDS011;33219;47.410;9.730;2022-12-10T09:22:38;39.37;;;20.17;;
47481;SDS011;33219;47.410;9.730;2022-12-10T09:25:06;36.70;;;20.17;;
47481;SDS011;33219;47.410;9.730;2022-12-10T09:27:40;38.40;;;20.27;;
47481;SDS011;33219;47.410;9.730;2022-12-10T09:30:08;39.13;;;21.37;;
47481;SDS011;33219;47.410;9.730;2022-12-10T09:32:37;42.23;;;21.00;;
47481;SDS011;33219;47.410;9.730;2022-12-10T09:35:05;37.30;;;21.03;;
47481;SDS011;33219;47.410;9.730;2022-12-10T09:37:32;41.80;;;22.20;;
47481;SDS011;33219;47.410;9.730;2022-12-10T09:40:00;34.70;;;19.47;;
47481;SDS011;33219;47.410;9.730;2022-12-10T09:53:22;38.20;;;20.40;;
47481;SDS011;33219;47.410;9.730;2022-12-10T09:55:52;40.77;;;20.67;;
47481;SDS011;33219;47.410;9.730;2022-12-10T09:58:21;41.83;;;22.30;;
47481;SDS011;33219;47.410;9.730;2022-12-10T10:00:58;43.27;;;22.10;;
47481;SDS011;33219;47.410;9.730;2022-12-10T10:03:28;43.83;;;22.17;;
47481;SDS011;33219;47.410;9.730;2022-12-10T10:05:58;44.30;;;22.40;;
47481;SDS011;33219;47.410;9.730;2022-12-10T10:08:31;43.90;;;22.87;;
47481;SDS011;33219;47.410;9.730;2022-12-10T10:11:00;37.57;;;21.33;;
47481;SDS011;33219;47.410;9.730;2022-12-10T10:16:26;41.73;;;21.47;;
47481;SDS011;33219;47.410;9.730;2022-12-10T10:21:39;36.77;;;19.77;;
47481;SDS011;33219;47.410;9.730;2022-12-10T10:24:04;36.50;;;19.17;;
47481;SDS011;33219;47.410;9.730;2022-12-10T10:26:35;48.73;;;24.70;;
47481;SDS011;33219;47.410;9.730;2022-12-10T10:29:05;43.70;;;22.63;;
47481;SDS011;33219;47.410;9.730;2022-12-10T10:31:34;39.67;;;21.73;;
47481;SDS011;33219;47.410;9.730;2022-12-10T10:34:04;42.00;;;21.97;;
47481;SDS011;33219;47.410;9.730;2022-12-10T10:36:34;42.13;;;22.10;;
47481;SDS011;33219;47.410;9.730;2022-12-10T10:39:10;40.30;;;20.47;;
47481;SDS011;33219;47.410;9.730;2022-12-10T10:41:50;36.75;;;21.23;;
47481;SDS011;33219;47.410;9.730;2022-12-10T10:44:20;35.50;;;19.57;;
47481;SDS011;33219;47.410;9.730;2022-12-10T10:46:51;42.77;;;21.83;;
47481;SDS011;33219;47.410;9.730;2022-12-10T10:49:27;41.73;;;21.97;;
47481;SDS011;33219;47.410;9.730;2022-12-10T10:52:12;43.27;;;22.63;;
47481;SDS011;33219;47.410;9.730;2022-12-10T10:54:40;31.20;;;17.15;;
47481;SDS011;33219;47.410;9.730;2022-12-10T10:57:29;40.87;;;21.17;;
47481;SDS011;33219;47.410;9.730;2022-12-10T10:59:46;45.07;;;24.30;;
47481;SDS011;33219;47.410;9.730;2022-12-10T11:02:48;49.57;;;25.90;;
47481;SDS011;33219;47.410;9.730;2022-12-10T11:05:05;44.40;;;26.17;;
47481;SDS011;33219;47.410;9.730;2022-12-10T11:07:36;46.57;;;25.63;;
47481;SDS011;33219;47.410;9.730;2022-12-10T11:12:43;47.07;;;24.80;;
47481;SDS011;33219;47.410;9.730;2022-12-10T11:17:53;44.33;;;24.97;;
47481;SDS011;33219;47.410;9.730;2022-12-10T11:20:23;47.33;;;25.23;;
47481;SDS011;33219;47.410;9.730;2022-12-10T11:22:56;55.63;;;29.40;;
47481;SDS011;33219;47.410;9.730;2022-12-10T11:42:58;47.10;;;24.20;;
47481;SDS011;33219;47.410;9.730;2022-12-10T11:48:48;43.97;;;22.97;;
47481;SDS011;33219;47.410;9.730;2022-12-10T11:51:39;44.73;;;23.27;;
47481;SDS011;33219;47.410;9.730;2022-12-10T11:56:49;47.60;;;23.80;;
47481;SDS011;33219;47.410;9.730;2022-12-10T11:59:25;48.50;;;24.33;;
47481;SDS011;33219;47.410;9.730;2022-12-10T12:02:15;45.17;;;23.47;;
47481;SDS011;33219;47.410;9.730;2022-12-10T12:04:49;47.93;;;24.60;;
47481;SDS011;33219;47.410;9.730;2022-12-10T12:15:32;46.77;;;23.87;;
47481;SDS011;33219;47.410;9.730;2022-12-10T12:20:34;49.40;;;25.03;;
47481;SDS011;33219;47.410;9.730;2022-12-10T12:23:05;48.07;;;25.73;;
47481;SDS011;33219;47.410;9.730;2022-12-10T12:25:44;43.73;;;23.63;;
47481;SDS011;33219;47.410;9.730;2022-12-10T12:28:24;46.17;;;25.20;;
47481;SDS011;33219;47.410;9.730;2022-12-10T12:31:04;49.53;;;25.73;;
47481;SDS011;33219;47.410;9.730;2022-12-10T12:33:45;41.70;;;24.03;;
47481;SDS011;33219;47.410;9.730;2022-12-10T12:36:15;41.27;;;22.67;;
47481;SDS011;33219;47.410;9.730;2022-12-10T12:38:51;42.70;;;22.30;;
47481;SDS011;33219;47.410;9.730;2022-12-10T12:41:36;41.27;;;22.63;;
47481;SDS011;33219;47.410;9.730;2022-12-10T12:46:51;47.93;;;24.33;;
47481;SDS011;33219;47.410;9.730;2022-12-10T12:49:29;47.93;;;25.20;;
47481;SDS011;33219;47.410;9.730;2022-12-10T12:52:00;52.77;;;27.13;;
47481;SDS011;33219;47.410;9.730;2022-12-10T12:54:32;49.43;;;25.30;;
47481;SDS011;33219;47.410;9.730;2022-12-10T12:57:19;47.77;;;25.90;;
47481;SDS011;33219;47.410;9.730;2022-12-10T13:02:25;46.23;;;25.20;;
47481;SDS011;33219;47.410;9.730;2022-12-10T13:05:02;43.20;;;23.77;;
47481;SDS011;33219;47.410;9.730;2022-12-10T13:07:32;47.43;;;24.40;;
47481;SDS011;33219;47.410;9.730;2022-12-10T13:12:48;42.75;;;22.40;;
47481;SDS011;33219;47.410;9.730;2022-12-10T13:15:20;43.57;;;22.90;;
47481;SDS011;33219;47.410;9.730;2022-12-10T13:20:48;45.73;;;25.43;;
47481;SDS011;33219;47.410;9.730;2022-12-10T13:25:59;46.23;;;24.13;;
47481;SDS011;33219;47.410;9.730;2022-12-10T13:28:38;49.60;;;24.43;;
47481;SDS011;33219;47.410;9.730;2022-12-10T13:36:35;42.93;;;23.13;;
47481;SDS011;33219;47.410;9.730;2022-12-10T13:41:41;41.97;;;22.07;;
47481;SDS011;33219;47.410;9.730;2022-12-10T13:44:59;44.03;;;22.93;;
47481;SDS011;33219;47.410;9.730;2022-12-10T13:53:08;45.63;;;24.20;;
47481;SDS011;33219;47.410;9.730;2022-12-10T14:06:37;39.20;;;20.40;;
47481;SDS011;33219;47.410;9.730;2022-12-10T14:09:09;34.10;;;19.23;;
47481;SDS011;33219;47.410;9.730;2022-12-10T14:11:40;36.13;;;19.57;;
47481;SDS011;33219;47.410;9.730;2022-12-10T14:14:11;39.23;;;19.67;;
47481;SDS011;33219;47.410;9.730;2022-12-10T14:16:40;35.53;;;19.03;;
47481;SDS011;33219;47.410;9.730;2022-12-10T14:19:11;37.77;;;19.47;;
47481;SDS011;33219;47.410;9.730;2022-12-10T14:21:42;31.53;;;18.20;;
47481;SDS011;33219;47.410;9.730;2022-12-10T14:24:32;36.47;;;19.20;;
47481;SDS011;33219;47.410;9.730;2022-12-10T14:29:49;35.90;;;19.17;;
47481;SDS011;33219;47.410;9.730;2022-12-10T14:32:19;36.97;;;20.13;;
47481;SDS011;33219;47.410;9.730;2022-12-10T14:34:53;38.60;;;20.93;;
47481;SDS011;33219;47.410;9.730;2022-12-10T14:37:23;43.67;;;21.63;;
47481;SDS011;33219;47.410;9.730;2022-12-10T14:39:53;41.13;;;21.47;;
47481;SDS011;33219;47.410;9.730;2022-12-10T14:42:21;43.30;;;21.23;;
47481;SDS011;33219;47.410;9.730;2022-12-10T14:44:51;41.93;;;22.77;;
47481;SDS011;33219;47.410;9.730;2022-12-10T14:47:26;50.23;;;24.23;;
47481;SDS011;33219;47.410;9.730;2022-12-10T14:49:57;46.83;;;23.33;;
47481;SDS011;33219;47.410;9.730;2022-12-10T14:52:32;39.13;;;20.70;;
47481;SDS011;33219;47.410;9.730;2022-12-10T14:55:01;40.50;;;22.00;;
47481;SDS011;33219;47.410;9.730;2022-12-10T14:57:31;39.57;;;19.70;;
47481;SDS011;33219;47.410;9.730;2022-12-10T15:00:07;41.60;;;20.80;;
47481;SDS011;33219;47.410;9.730;2022-12-10T15:02:40;32.70;;;18.07;;
47481;SDS011;33219;47.410;9.730;2022-12-10T15:05:19;33.30;;;17.70;;
47481;SDS011;33219;47.410;9.730;2022-12-10T15:07:48;34.50;;;16.70;;
47481;SDS011;33219;47.410;9.730;2022-12-10T15:10:18;31.97;;;17.13;;
47481;SDS011;33219;47.410;9.730;2022-12-10T15:12:48;30.57;;;17.20;;
47481;SDS011;33219;47.410;9.730;2022-12-10T15:18:03;34.27;;;17.20;;
47481;SDS011;33219;47.410;9.730;2022-12-10T15:20:37;31.63;;;16.80;;
47481;SDS011;33219;47.410;9.730;2022-12-10T15:23:08;31.23;;;16.53;;
47481;SDS011;33219;47.410;9.730;2022-12-10T15:25:50;28.53;;;15.60;;
47481;SDS011;33219;47.410;9.730;2022-12-10T15:28:36;27.87;;;15.47;;
47481;SDS011;33219;47.410;9.730;2022-12-10T15:30:51;28.20;;;15.30;;
47481;SDS011;33219;47.410;9.730;2022-12-10T15:33:26;28.30;;;14.73;;
47481;SDS011;33219;47.410;9.730;2022-12-10T15:35:53;29.67;;;15.53;;
47481;SDS011;33219;47.410;9.730;2022-12-10T15:38:21;28.77;;;15.27;;
47481;SDS011;33219;47.410;9.730;2022-12-10T15:40:50;29.00;;;14.63;;
47481;SDS011;33219;47.410;9.730;2022-12-10T15:43:24;25.47;;;15.23;;
47481;SDS011;33219;47.410;9.730;2022-12-10T15:45:56;28.03;;;14.40;;
47481;SDS011;33219;47.410;9.730;2022-12-10T15:48:26;26.53;;;14.83;;
47481;SDS011;33219;47.410;9.730;2022-12-10T15:50:56;26.80;;;14.33;;
47481;SDS011;33219;47.410;9.730;2022-12-10T15:53:34;27.47;;;14.27;;
47481;SDS011;33219;47.410;9.730;2022-12-10T15:56:00;27.57;;;16.00;;
47481;SDS011;33219;47.410;9.730;2022-12-10T15:58:28;24.20;;;12.97;;
47481;SDS011;33219;47.410;9.730;2022-12-10T16:00:56;24.87;;;12.60;;
47481;SDS011;33219;47.410;9.730;2022-12-10T16:03:24;24.53;;;13.53;;
47481;SDS011;33219;47.410;9.730;2022-12-10T16:05:55;25.10;;;14.20;;
47481;SDS011;33219;47.410;9.730;2022-12-10T16:08:28;24.27;;;13.73;;
47481;SDS011;33219;47.410;9.730;2022-12-10T16:10:55;25.40;;;13.73;;
47481;SDS011;33219;47.410;9.730;2022-12-10T16:13:25;24.20;;;13.20;;
47481;SDS011;33219;47.410;9.730;2022-12-10T16:15:56;24.20;;;13.67;;
47481;SDS011;33219;47.410;9.730;2022-12-10T16:18:26;26.27;;;13.80;;
47481;SDS011;33219;47.410;9.730;2022-12-10T16:20:54;23.93;;;12.80;;
47481;SDS011;33219;47.410;9.730;2022-12-10T16:23:21;27.30;;;13.77;;
47481;SDS011;33219;47.410;9.730;2022-12-10T16:25:49;28.37;;;14.57;;
47481;SDS011;33219;47.410;9.730;2022-12-10T16:28:18;27.30;;;14.20;;
47481;SDS011;33219;47.410;9.730;2022-12-10T16:30:48;29.43;;;15.37;;
47481;SDS011;33219;47.410;9.730;2022-12-10T16:33:19;26.10;;;13.77;;
47481;SDS011;33219;47.410;9.730;2022-12-10T16:35:49;23.10;;;13.17;;
47481;SDS011;33219;47.410;9.730;2022-12-10T16:38:19;23.87;;;12.53;;
47481;SDS011;33219;47.410;9.730;2022-12-10T16:40:50;20.45;;;10.50;;